Time;durP1;ratioP1;P1;durP2;ratioP2;P2;SDS_P1;SDS_P2;PMS_P1;PMS_P2;Temp;Humidity;BMP_temperature;BMP_pressure;BME280_temperature;BME280_humidity;BME280_pressure;Samples;Min_cycle;Max_cycle;Signal;HPM_P1;HPM_P2
2022/09/21 00:00:31;;;;;;;4.03;1.50;;;;;;;6.33;100.00;98292.78;6185298;28;20227;-91
2022/09/21 00:03:34;;;;;;;2.10;1.90;;;;;;;6.34;99.74;98291.84;6185317;28;20237;-90
2022/09/21 00:06:36;;;;;;;3.07;1.80;;;;;;;6.35;100.00;98279.59;6184697;28;20722;-90
2022/09/21 00:09:38;;;;;;;2.63;1.60;;;;;;;6.37;100.00;98290.84;6188999;28;20704;-90
2022/09/21 00:12:40;;;;;;;1.67;1.57;;;;;;;6.39;99.92;98286.38;6188383;28;20231;-91
2022/09/21 00:15:42;;;;;;;1.43;1.30;;;;;;;6.42;100.00;98294.91;6172869;28;20697;-91
2022/09/21 00:18:44;;;;;;;2.27;1.27;;;;;;;6.50;99.46;98297.94;6172639;28;20229;-91
2022/09/21 00:21:46;;;;;;;2.40;2.00;;;;;;;6.51;99.39;98293.56;6189533;28;20716;-90
2022/09/21 00:24:48;;;;;;;1.30;1.20;;;;;;;6.43;99.02;98291.34;6189242;28;20690;-91
2022/09/21 00:27:50;;;;;;;2.20;1.43;;;;;;;6.39;99.45;98294.25;6187782;28;20224;-90
2022/09/21 00:30:52;;;;;;;2.63;1.53;;;;;;;6.42;99.56;98292.28;6186963;28;20315;-90
2022/09/21 00:33:55;;;;;;;2.10;1.73;;;;;;;6.50;99.62;98291.84;6168397;28;20276;-91
2022/09/21 00:36:57;;;;;;;1.60;1.50;;;;;;;6.57;98.75;98288.84;6183480;28;20242;-90
2022/09/21 00:39:59;;;;;;;1.60;1.20;;;;;;;6.60;98.10;98291.28;6184679;28;20227;-90
2022/09/21 00:43:15;;;;;;;1.73;1.53;;;;;;;6.56;97.95;98294.16;6191792;28;20221;-90
2022/09/21 00:46:28;;;;;;;2.50;1.27;;;;;;;6.59;98.59;98286.97;6191029;28;20726;-91
2022/09/21 00:49:33;;;;;;;3.97;1.40;;;;;;;6.57;98.08;98291.47;6190977;28;20321;-91
2022/09/21 00:52:46;;;;;;;5.63;1.43;;;;;;;6.58;98.26;98290.53;6191192;28;20233;-90
2022/09/21 00:55:54;;;;;;;2.80;1.43;;;;;;;6.64;98.44;98300.69;6174651;28;20232;-90
2022/09/21 00:58:57;;;;;;;1.73;1.50;;;;;;;6.69;98.56;98284.69;6175213;28;20236;-90
2022/09/21 01:01:59;;;;;;;2.87;1.30;;;;;;;6.70;98.40;98293.41;6174863;28;20235;-90
2022/09/21 01:05:06;;;;;;;2.80;1.87;;;;;;;6.80;98.18;98290.19;6183763;28;20696;-90
2022/09/21 01:08:11;;;;;;;3.07;1.77;;;;;;;6.90;97.54;98288.75;6184831;28;20241;-90
2022/09/21 01:11:29;;;;;;;1.47;1.27;;;;;;;7.01;96.57;98288.13;6166547;28;20265;-90
2022/09/21 01:14:31;;;;;;;1.93;1.40;;;;;;;7.06;95.60;98283.50;6167598;28;20597;-91
2022/09/21 01:17:56;;;;;;;3.37;1.40;;;;;;;7.04;95.45;98280.09;6165513;28;20250;-91
2022/09/21 01:21:18;;;;;;;2.03;1.37;;;;;;;7.07;95.54;98282.56;6181137;28;20228;-90
2022/09/21 01:24:42;;;;;;;3.17;1.43;;;;;;;7.15;94.30;98282.97;6190565;28;20215;-91
2022/09/21 01:28:06;;;;;;;1.30;1.20;;;;;;;7.27;93.37;98281.44;6174186;28;20702;-90
2022/09/21 01:31:15;;;;;;;2.00;1.30;;;;;;;7.29;92.62;98283.00;6174980;28;20287;-91
2022/09/21 01:34:32;;;;;;;2.50;1.30;;;;;;;7.33;91.97;98284.53;6189859;28;20614;-91
2022/09/21 01:37:34;;;;;;;1.50;1.40;;;;;;;7.36;91.65;98283.53;6174087;28;20657;-90
2022/09/21 01:40:41;;;;;;;2.63;1.60;;;;;;;7.37;91.16;98282.59;6189485;28;20258;-91
2022/09/21 01:43:49;;;;;;;2.93;1.67;;;;;;;7.32;91.03;98274.97;6193066;28;20608;-91
2022/09/21 01:46:52;;;;;;;1.50;1.07;;;;;;;7.33;91.32;98289.78;6216994;28;20263;-89
2022/09/21 01:49:58;;;;;;;3.30;1.67;;;;;;;7.38;90.48;98279.03;6188426;28;20301;-92
2022/09/21 01:53:33;;;;;;;5.00;1.30;;;;;;;7.40;89.67;98277.16;6186334;28;20248;-90
2022/09/21 01:56:45;;;;;;;2.83;1.23;;;;;;;7.40;89.51;98277.16;6141064;28;20247;-91
2022/09/21 01:59:56;;;;;;;2.40;1.23;;;;;;;7.45;88.51;98288.25;6172777;28;20740;-90
2022/09/21 02:03:34;;;;;;;1.53;1.40;;;;;;;7.48;86.51;98279.34;6173422;28;20735;-91
2022/09/21 02:06:39;;;;;;;6.53;1.23;;;;;;;7.52;87.49;98288.72;6094159;29;20235;-90
2022/09/21 02:09:41;;;;;;;2.10;1.43;;;;;;;7.51;88.05;98287.88;6077217;28;20776;-92
2022/09/21 02:12:44;;;;;;;3.00;1.50;;;;;;;7.53;86.84;98300.91;6107015;29;20298;-88
2022/09/21 02:16:08;;;;;;;2.57;1.40;;;;;;;7.54;86.94;98300.00;6132608;28;20232;-90
2022/09/21 02:19:16;;;;;;;2.53;1.20;;;;;;;7.55;86.77;98302.53;6100661;29;20317;-91
2022/09/21 02:22:58;;;;;;;1.57;1.30;;;;;;;7.55;87.10;98301.69;6092750;28;20257;-91
2022/09/21 02:26:16;;;;;;;2.70;1.80;;;;;;;7.46;87.00;98302.22;6092552;29;20230;-90
2022/09/21 02:29:27;;;;;;;1.90;1.30;;;;;;;7.46;87.59;98310.09;6092609;28;20238;-91
2022/09/21 02:32:49;;;;;;;3.40;1.00;;;;;;;7.42;87.56;98306.78;6076709;29;20257;-91
2022/09/21 02:36:03;;;;;;;2.27;1.47;;;;;;;7.43;87.42;98310.25;6092380;28;20244;-90
2022/09/21 02:39:11;;;;;;;2.03;1.50;;;;;;;7.46;87.48;98313.56;6091977;29;20227;-91
2022/09/21 02:42:22;;;;;;;1.47;1.20;;;;;;;7.45;87.14;98318.91;6123074;28;20212;-91
2022/09/21 02:45:29;;;;;;;2.60;1.57;;;;;;;7.42;88.00;98322.53;6189256;28;20232;-91
2022/09/21 02:48:40;;;;;;;2.83;1.50;;;;;;;7.46;88.02;98320.59;6190034;28;20231;-91
2022/09/21 02:51:49;;;;;;;3.40;1.50;;;;;;;7.48;87.27;98316.97;6175103;28;20239;-91
2022/09/21 02:54:53;;;;;;;1.90;1.40;;;;;;;7.50;86.74;98317.69;6170890;28;20329;-90
2022/09/21 02:57:56;;;;;;;3.70;1.80;;;;;;;7.56;86.65;98314.72;6170712;28;20244;-92
2022/09/21 03:00:59;;;;;;;2.07;1.30;;;;;;;7.58;87.48;98317.28;6170237;28;20232;-90
2022/09/21 03:04:01;;;;;;;1.53;1.43;;;;;;;7.59;86.85;98319.78;6169478;28;20233;-90
2022/09/21 03:07:03;;;;;;;2.77;1.47;;;;;;;7.62;85.71;98321.41;6169654;28;20233;-89
2022/09/21 03:10:07;;;;;;;2.63;1.70;;;;;;;7.67;85.63;98314.13;6171020;28;20242;-91
2022/09/21 03:13:09;;;;;;;1.60;1.50;;;;;;;7.67;85.94;98325.47;6186946;28;20325;-91
2022/09/21 03:16:12;;;;;;;1.60;1.33;;;;;;;7.67;86.06;98327.25;6193132;28;20362;-91
2022/09/21 03:19:14;;;;;;;1.70;1.60;;;;;;;7.66;85.36;98328.19;6193546;28;20232;-90
2022/09/21 03:22:16;;;;;;;1.90;1.20;;;;;;;7.70;84.91;98330.53;6177419;28;20247;-91
2022/09/21 03:25:18;;;;;;;1.43;1.20;;;;;;;7.70;85.26;98330.53;6177517;28;20236;-90
2022/09/21 03:28:21;;;;;;;3.47;1.63;;;;;;;7.70;85.51;98332.31;6177698;28;20710;-90
2022/09/21 03:31:23;;;;;;;3.93;1.90;;;;;;;7.67;85.67;98325.47;6177414;28;20263;-90
2022/09/21 03:34:25;;;;;;;2.00;1.60;;;;;;;7.71;86.27;98337.47;6176510;28;20329;-90
2022/09/21 03:37:29;;;;;;;1.53;1.43;;;;;;;7.68;85.72;98331.56;6176992;28;20336;-90
2022/09/21 03:40:32;;;;;;;1.80;1.43;;;;;;;7.70;85.76;98340.19;6177963;28;20710;-89
2022/09/21 03:43:34;;;;;;;2.63;1.57;;;;;;;7.70;85.72;98333.16;6192809;28;20231;-91
2022/09/21 03:46:36;;;;;;;1.43;1.33;;;;;;;7.66;85.16;98328.19;6192604;28;20799;-90
2022/09/21 03:49:38;;;;;;;2.33;1.73;;;;;;;7.64;84.92;98338.78;6189008;28;20243;-91
2022/09/21 03:52:40;;;;;;;2.03;1.60;;;;;;;7.62;84.68;98331.91;6185203;28;20230;-91
2022/09/21 03:55:42;;;;;;;1.60;1.47;;;;;;;7.62;85.15;98334.53;6184262;28;20804;-90
2022/09/21 03:58:44;;;;;;;2.03;1.70;;;;;;;7.60;84.59;98344.28;6185339;28;20231;-90
2022/09/21 04:01:49;;;;;;;2.60;1.57;;;;;;;7.59;84.37;98338.19;6183950;28;20638;-91
2022/09/21 04:04:51;;;;;;;3.60;2.00;;;;;;;7.58;85.11;98339.13;6184625;28;20267;-90
2022/09/21 04:07:55;;;;;;;3.37;1.63;;;;;;;7.56;84.95;98351.50;6168526;28;20236;-90
2022/09/21 04:10:57;;;;;;;2.87;1.80;;;;;;;7.52;85.40;98347.34;6168637;28;20253;-90
2022/09/21 04:13:59;;;;;;;4.03;1.63;;;;;;;7.49;85.17;98352.78;6191919;28;20321;-91
2022/09/21 04:17:01;;;;;;;2.83;2.00;;;;;;;7.44;85.16;98354.81;6191791;28;20335;-90
2022/09/21 04:20:04;;;;;;;3.07;1.73;;;;;;;7.38;86.07;98358.66;6184618;28;20872;-91
2022/09/21 04:23:08;;;;;;;2.40;1.77;;;;;;;7.30;86.40;98365.25;6154702;28;20227;-91
2022/09/21 04:26:31;;;;;;;5.40;1.77;;;;;;;7.26;87.52;98369.00;6176596;28;20328;-91
2022/09/21 04:29:33;;;;;;;2.70;1.90;;;;;;;7.17;88.02;98374.75;6173384;28;20229;-91
2022/09/21 04:32:35;;;;;;;5.37;2.40;;;;;;;7.16;87.62;98373.06;6172391;28;20760;-92
2022/09/21 04:35:38;;;;;;;3.20;2.20;;;;;;;7.17;87.37;98383.47;6173510;28;20231;-91
2022/09/21 04:38:40;;;;;;;2.43;2.23;;;;;;;7.15;88.21;98387.13;6172685;28;20244;-90
2022/09/21 04:41:42;;;;;;;6.30;2.70;;;;;;;7.12;88.21;98390.75;6184553;28;20237;-91
2022/09/21 04:44:44;;;;;;;3.17;2.40;;;;;;;7.15;88.16;98395.00;6221661;28;20237;-91
2022/09/21 04:47:47;;;;;;;2.40;2.20;;;;;;;7.15;88.39;98401.09;6223550;28;20246;-91
2022/09/21 04:50:49;;;;;;;5.03;2.80;;;;;;;7.18;88.03;98406.19;6222834;28;20223;-92
2022/09/21 04:53:51;;;;;;;3.93;2.40;;;;;;;7.21;89.03;98411.25;6222728;28;20238;-91
2022/09/21 04:56:54;;;;;;;3.20;2.90;;;;;;;7.25;88.83;98409.31;6221532;28;20236;-92
2022/09/21 04:59:56;;;;;;;4.00;2.40;;;;;;;7.29;88.56;98416.06;6205055;28;20283;-90
2022/09/21 05:02:58;;;;;;;4.70;2.87;;;;;;;7.32;88.47;98411.50;6205071;28;20257;-91
2022/09/21 05:06:01;;;;;;;4.50;3.10;;;;;;;7.39;87.46;98412.00;6238713;28;20289;-90
2022/09/21 05:12:24;;;;;;;2.90;2.27;;;;;;;7.35;88.28;98419.22;6221599;28;20213;-91
2022/09/21 05:15:26;;;;;;;2.23;1.83;;;;;;;7.28;89.08;98415.25;6221097;28;20232;-91
2022/09/21 05:18:28;;;;;;;3.30;2.80;;;;;;;7.22;89.29;98412.94;6197374;28;20705;-91
2022/09/21 05:21:35;;;;;;;3.50;3.00;;;;;;;7.23;89.50;98417.25;6202588;28;20242;-92
2022/09/21 05:24:37;;;;;;;4.93;3.67;;;;;;;7.32;89.57;98419.38;6213462;28;20286;-92
2022/09/21 05:27:39;;;;;;;3.97;2.87;;;;;;;7.45;89.15;98418.69;6197780;28;20212;-91
2022/09/21 05:30:44;;;;;;;5.17;3.80;;;;;;;7.57;88.52;98415.38;6213128;28;20218;-91
2022/09/21 05:34:37;;;;;;;3.17;2.90;;;;;;;7.73;87.15;98419.69;6199778;28;20224;-91
2022/09/21 05:37:54;;;;;;;4.67;3.20;;;;;;;7.88;86.91;98411.88;6212047;28;20223;-91
2022/09/21 05:40:57;;;;;;;3.53;3.00;;;;;;;7.97;86.51;98416.59;6229171;28;20224;-91
2022/09/21 05:43:59;;;;;;;5.63;3.63;;;;;;;8.06;85.32;98426.56;6212605;28;20237;-91
2022/09/21 05:47:26;;;;;;;6.10;3.20;;;;;;;8.17;84.94;98426.78;6212184;28;20216;-92
2022/09/21 05:50:50;;;;;;;4.93;2.93;;;;;;;8.32;84.22;98423.28;6212367;28;20227;-91
2022/09/21 05:54:11;;;;;;;2.70;2.50;;;;;;;8.42;83.64;98429.69;6213007;28;20212;-92
2022/09/21 05:57:24;;;;;;;4.00;3.00;;;;;;;8.52;83.32;98428.19;6213296;28;20225;-92
2022/09/21 06:00:56;;;;;;;3.83;3.00;;;;;;;8.63;82.58;98437.22;6197909;28;20217;-92
2022/09/21 06:04:00;;;;;;;3.73;3.00;;;;;;;8.66;81.46;98430.00;6196850;28;20213;-91
2022/09/21 06:07:02;;;;;;;4.60;2.77;;;;;;;8.70;81.25;98428.84;6215724;28;20285;-90
2022/09/21 06:10:04;;;;;;;3.30;3.00;;;;;;;8.71;81.51;98435.81;6201652;28;20236;-91
2022/09/21 06:13:07;;;;;;;5.97;2.93;;;;;;;8.72;80.36;98432.25;6198263;28;20244;-91
2022/09/21 06:16:09;;;;;;;5.67;3.00;;;;;;;8.75;80.54;98431.22;6206584;28;20222;-91
2022/09/21 06:19:12;;;;;;;3.70;3.10;;;;;;;8.76;80.79;98436.41;6169256;28;20709;-92
2022/09/21 06:22:14;;;;;;;3.60;3.03;;;;;;;8.79;81.49;98437.97;6181720;28;20783;-91
2022/09/21 06:25:18;;;;;;;2.70;2.50;;;;;;;8.83;80.86;98442.13;6180870;28;20270;-91
2022/09/21 06:28:21;;;;;;;3.33;2.70;;;;;;;8.81;80.95;98446.63;6181907;28;20261;-91
2022/09/21 06:31:23;;;;;;;3.13;2.33;;;;;;;8.82;80.42;98449.16;6182011;28;20232;-91
2022/09/21 06:34:25;;;;;;;5.70;3.10;;;;;;;8.81;80.36;98438.72;6182281;28;20237;-90
2022/09/21 06:37:27;;;;;;;3.50;2.40;;;;;;;8.82;80.34;98451.81;6163677;28;20323;-91
2022/09/21 06:40:30;;;;;;;8.90;3.20;;;;;;;8.88;80.18;98447.97;6181028;28;20302;-91
2022/09/21 06:43:33;;;;;;;2.97;2.40;;;;;;;8.83;79.15;98448.25;6169129;28;20265;-90
2022/09/21 06:46:35;;;;;;;3.73;2.70;;;;;;;8.85;79.77;98451.63;6156974;28;20714;-91
2022/09/21 06:49:37;;;;;;;2.77;2.57;;;;;;;8.79;79.60;98451.13;6177004;28;20533;-90
2022/09/21 06:52:43;;;;;;;5.40;2.63;;;;;;;8.68;79.08;98449.19;6180813;28;20241;-90
2022/09/21 06:55:45;;;;;;;3.37;2.10;;;;;;;8.65;79.45;98457.25;6165258;28;20237;-91
2022/09/21 06:58:47;;;;;;;4.13;2.57;;;;;;;8.67;79.14;98465.06;6164967;28;20612;-90
2022/09/21 07:01:49;;;;;;;4.80;2.43;;;;;;;8.72;79.77;98463.81;6164721;28;20233;-91
2022/09/21 07:04:51;;;;;;;4.17;2.57;;;;;;;8.82;80.09;98467.59;6164775;28;20259;-90
2022/09/21 07:07:57;;;;;;;2.87;2.30;;;;;;;8.89;79.16;98471.53;6181217;28;20232;-91
2022/09/21 07:11:01;;;;;;;3.97;2.47;;;;;;;9.03;79.17;98472.50;6180627;28;20709;-91
2022/09/21 07:14:04;;;;;;;4.27;1.93;;;;;;;9.14;78.64;98476.16;6156705;28;20287;-90
2022/09/21 07:17:07;;;;;;;2.63;2.17;;;;;;;9.23;77.02;98480.84;6160922;28;20586;-91
2022/09/21 07:20:09;;;;;;;3.20;1.83;;;;;;;9.36;77.09;98475.69;6173012;28;20233;-90
2022/09/21 07:23:16;;;;;;;4.40;1.90;;;;;;;9.48;75.90;98487.25;6188500;28;20235;-90
2022/09/21 07:26:18;;;;;;;3.43;1.63;;;;;;;9.57;76.61;98482.25;6172617;28;20227;-90
2022/09/21 07:29:20;;;;;;;4.17;2.60;;;;;;;9.70;76.70;98489.34;6204956;28;20224;-90
2022/09/21 07:32:23;;;;;;;4.03;2.20;;;;;;;9.80;75.71;98493.94;6188001;28;20469;-91
2022/09/21 07:35:25;;;;;;;3.17;2.17;;;;;;;9.92;74.98;98500.22;6188209;28;20236;-91
2022/09/21 07:38:27;;;;;;;2.00;1.80;;;;;;;9.97;74.31;98493.72;6192087;28;20749;-91
2022/09/21 07:41:29;;;;;;;2.07;1.90;;;;;;;10.10;73.98;98492.88;6174241;28;20223;-90
2022/09/21 07:44:33;;;;;;;3.47;1.90;;;;;;;10.23;73.11;98501.72;6168975;28;20226;-90
2022/09/21 07:47:35;;;;;;;2.40;2.10;;;;;;;10.17;72.57;98502.13;6168657;28;20604;-90
2022/09/21 07:50:37;;;;;;;3.50;2.17;;;;;;;10.25;73.02;98497.22;6172445;28;20235;-91
2022/09/21 07:53:41;;;;;;;1.97;1.77;;;;;;;10.35;73.04;98507.06;6184384;28;20249;-91
2022/09/21 07:59:04;;;;;;;2.20;2.00;;;;;;;10.40;72.44;98509.38;6185576;28;20235;-90
2022/09/21 08:00:05;;;;;;;3.10;2.13;;;;;;;10.33;72.68;98508.94;6183523;28;20223;-91
2022/09/21 08:03:12;;;;;;;5.40;2.27;;;;;;;10.26;72.81;98512.09;6184562;28;20214;-90
2022/09/21 08:06:14;;;;;;;3.00;2.00;;;;;;;10.16;73.32;98513.59;6184604;28;20201;-90
2022/09/21 08:09:16;;;;;;;2.77;2.00;;;;;;;10.02;74.18;98506.59;6168450;28;20660;-91
2022/09/21 08:12:19;;;;;;;3.83;2.17;;;;;;;10.00;74.38;98504.03;6184110;28;20706;-91
2022/09/21 08:15:21;;;;;;;2.53;2.07;;;;;;;9.98;73.66;98502.47;6167999;28;20609;-90
2022/09/21 08:18:43;;;;;;;2.47;2.07;;;;;;;10.12;73.97;98501.56;6184869;28;20236;-91
2022/09/21 08:21:48;;;;;;;2.60;1.90;;;;;;;10.18;74.31;98501.19;6184788;28;20312;-91
2022/09/21 08:24:57;;;;;;;2.40;1.77;;;;;;;10.23;74.04;98497.31;6184175;28;20226;-91
2022/09/21 08:27:59;;;;;;;2.33;1.90;;;;;;;10.26;74.52;98497.13;6184489;28;20281;-91
2022/09/21 08:31:03;;;;;;;2.63;1.80;;;;;;;10.24;74.27;98487.59;6184416;28;20239;-90
2022/09/21 08:34:05;;;;;;;1.83;1.73;;;;;;;10.23;74.17;98493.81;6183392;28;20231;-90
2022/09/21 08:37:07;;;;;;;2.90;1.80;;;;;;;10.35;73.47;98483.31;6183145;28;20285;-90
2022/09/21 08:40:10;;;;;;;1.93;1.80;;;;;;;10.52;73.45;98489.25;6183788;28;20797;-90
2022/09/21 08:43:21;;;;;;;1.87;1.70;;;;;;;10.84;72.61;98492.34;6191109;28;20238;-91
2022/09/21 08:46:27;;;;;;;2.17;1.60;;;;;;;10.83;72.68;98493.28;6208100;28;20239;-90
2022/09/21 08:49:32;;;;;;;2.07;1.53;;;;;;;10.91;72.43;98489.19;6190544;28;20381;-91
2022/09/21 08:52:37;;;;;;;1.70;1.60;;;;;;;11.24;71.92;98501.00;6190836;28;20235;-92
2022/09/21 08:55:39;;;;;;;2.17;1.97;;;;;;;11.94;68.50;98493.38;6174834;28;20244;-90
2022/09/21 08:58:42;;;;;;;3.03;1.83;;;;;;;12.35;66.10;98487.69;6191113;28;20239;-92
2022/09/21 09:02:07;;;;;;;3.73;2.13;;;;;;;12.79;65.18;98493.09;6174439;28;20400;-92
2022/09/21 09:05:24;;;;;;;2.03;1.80;;;;;;;13.25;62.00;98497.53;6174601;28;20228;-91
2022/09/21 09:08:48;;;;;;;2.60;2.00;;;;;;;13.53;62.23;98489.09;6174661;28;20224;-91
2022/09/21 09:11:53;;;;;;;2.63;1.53;;;;;;;13.91;60.88;98493.13;6174879;28;20717;-91
2022/09/21 09:15:49;;;;;;;1.63;1.40;;;;;;;14.09;60.35;98496.94;6174994;28;20803;-90
2022/09/21 09:18:56;;;;;;;2.83;1.70;;;;;;;14.33;60.07;98492.28;6139149;28;20233;-91
2022/09/21 09:22:03;;;;;;;2.00;1.60;;;;;;;14.80;58.72;98486.66;6183103;28;20227;-91
2022/09/21 09:25:18;;;;;;;2.20;1.70;;;;;;;14.67;58.04;98473.59;6182966;28;20228;-91
2022/09/21 09:28:32;;;;;;;2.50;1.50;;;;;;;14.04;59.43;98491.19;6168446;28;20324;-91
2022/09/21 09:31:35;;;;;;;1.83;1.50;;;;;;;14.45;58.40;98487.81;6171367;28;20325;-92
2022/09/21 09:34:43;;;;;;;1.80;1.63;;;;;;;15.03;56.85;98489.06;6170647;28;20259;-90
2022/09/21 09:37:47;;;;;;;3.00;1.80;;;;;;;14.91;56.84;98483.94;6185316;28;20241;-91
2022/09/21 09:41:23;;;;;;;2.03;1.40;;;;;;;15.64;54.85;98478.44;6195843;28;20213;-91
2022/09/21 09:44:54;;;;;;;2.00;1.53;;;;;;;16.00;53.74;98479.63;6189378;28;20249;-91
2022/09/21 09:48:11;;;;;;;2.67;1.43;;;;;;;16.03;53.83;98483.84;6165353;28;20234;-91
2022/09/21 09:51:13;;;;;;;2.53;1.63;;;;;;;15.85;54.17;98468.56;6179481;28;20229;-90
2022/09/21 09:54:17;;;;;;;1.57;1.47;;;;;;;15.75;54.19;98472.16;6166302;28;20677;-90
2022/09/21 09:57:27;;;;;;;1.20;1.10;;;;;;;16.10;54.42;98461.00;6165226;28;20669;-91
2022/09/21 10:00:29;;;;;;;2.87;1.50;;;;;;;16.23;52.08;98464.25;6182325;28;20242;-90
2022/09/21 10:03:32;;;;;;;1.37;1.07;;;;;;;15.76;54.40;98461.38;6181276;28;20852;-91
2022/09/21 10:06:35;;;;;;;1.57;1.20;;;;;;;15.69;54.70;98460.22;6166331;28;20735;-91
2022/09/21 10:09:37;;;;;;;2.83;1.50;;;;;;;16.03;54.51;98468.72;6165561;28;20233;-91
2022/09/21 10:12:39;;;;;;;1.67;1.40;;;;;;;15.47;54.34;98461.25;6165263;28;20712;-89
2022/09/21 10:15:49;;;;;;;2.10;1.30;;;;;;;15.32;54.60;98456.44;6181263;28;20391;-91
2022/09/21 10:19:00;;;;;;;2.63;1.23;;;;;;;15.33;54.89;98452.81;6180982;28;20257;-90
2022/09/21 10:22:03;;;;;;;2.33;1.03;;;;;;;15.08;54.88;98451.41;6174486;28;20725;-90
2022/09/21 10:25:15;;;;;;;1.47;1.37;;;;;;;15.36;53.34;98460.53;6157488;28;20304;-90
2022/09/21 10:28:20;;;;;;;1.70;1.10;;;;;;;15.65;53.49;98456.19;6157544;28;20238;-91
2022/09/21 10:31:24;;;;;;;1.30;1.00;;;;;;;16.47;52.25;98458.53;6158065;28;20304;-91
2022/09/21 10:34:34;;;;;;;1.23;1.00;;;;;;;17.18;49.29;98440.28;6157378;28;20237;-91
2022/09/21 10:37:47;;;;;;;2.13;1.10;;;;;;;16.31;52.39;98459.06;6172185;28;20243;-91
2022/09/21 10:40:49;;;;;;;0.80;0.80;;;;;;;15.22;53.21;98447.56;6155956;28;20321;-91
2022/09/21 10:43:53;;;;;;;1.10;1.00;;;;;;;15.60;53.94;98441.56;6180013;28;20607;-91
2022/09/21 10:47:01;;;;;;;1.90;1.10;;;;;;;16.71;52.16;98440.28;6181423;28;20229;-91
2022/09/21 10:50:26;;;;;;;1.73;1.10;;;;;;;17.12;49.84;98444.38;6181657;28;20483;-90
2022/09/21 10:53:36;;;;;;;1.80;1.13;;;;;;;16.68;50.96;98453.03;6190368;28;20325;-91
2022/09/21 10:56:50;;;;;;;2.83;1.13;;;;;;;16.81;50.81;98454.44;6180658;28;20625;-91
2022/09/21 10:59:52;;;;;;;0.90;0.80;;;;;;;16.69;50.99;98441.38;6179501;28;20324;-90
2022/09/21 11:02:59;;;;;;;1.50;0.97;;;;;;;16.39;51.29;98443.22;6180579;28;20311;-91
2022/09/21 11:06:13;;;;;;;1.20;0.90;;;;;;;16.14;53.02;98454.44;6179589;28;20701;-90
2022/09/21 11:09:23;;;;;;;1.23;1.17;;;;;;;15.68;54.14;98455.88;6182018;28;20322;-91
2022/09/21 11:12:45;;;;;;;1.87;1.00;;;;;;;15.60;53.64;98458.38;6171089;28;20234;-90
2022/09/21 11:15:55;;;;;;;1.10;1.00;;;;;;;16.10;52.78;98459.19;6162364;28;20301;-91
2022/09/21 11:19:19;;;;;;;0.90;0.90;;;;;;;16.53;52.60;98461.44;6161321;28;20740;-91
2022/09/21 11:22:44;;;;;;;1.20;1.10;;;;;;;16.19;52.43;98463.69;6161250;28;20706;-90
2022/09/21 11:26:04;;;;;;;2.60;1.30;;;;;;;15.94;55.22;98464.22;6144978;28;20239;-89
2022/09/21 11:29:46;;;;;;;1.57;1.30;;;;;;;16.40;53.98;98465.38;6161631;28;20781;-92
2022/09/21 11:32:58;;;;;;;1.73;1.30;;;;;;;16.57;52.39;98462.00;6108065;28;20776;-91
2022/09/21 11:36:06;;;;;;;1.10;0.87;;;;;;;16.50;52.16;98453.72;6149761;28;20700;-91
2022/09/21 11:39:23;;;;;;;0.73;0.70;;;;;;;16.80;49.70;98451.91;6160087;28;20241;-91
2022/09/21 11:42:34;;;;;;;1.03;0.70;;;;;;;17.03;47.79;98447.09;6160891;28;20242;-90
2022/09/21 11:46:08;;;;;;;1.37;0.60;;;;;;;17.48;48.71;98445.34;6160231;28;20229;-91
2022/09/21 11:49:16;;;;;;;1.30;0.90;;;;;;;17.60;48.21;98454.00;6160147;28;20236;-90
2022/09/21 11:52:37;;;;;;;1.07;0.60;;;;;;;17.06;50.19;98450.31;6160598;28;20234;-92
2022/09/21 11:55:46;;;;;;;2.70;0.80;;;;;;;16.98;51.12;98456.34;6159713;28;20634;-90
2022/09/21 11:59:10;;;;;;;1.10;0.83;;;;;;;17.43;49.41;98431.63;6160542;28;20234;-91
2022/09/21 12:02:39;;;;;;;0.93;0.80;;;;;;;18.12;49.86;98432.91;6159663;28;20257;-89
2022/09/21 12:05:47;;;;;;;1.17;1.07;;;;;;;17.59;47.19;98437.16;6144456;28;20234;-90
2022/09/21 12:09:14;;;;;;;0.70;0.70;;;;;;;16.74;51.78;98425.81;6176165;28;20237;-91
2022/09/21 12:12:22;;;;;;;0.70;0.70;;;;;;;16.13;52.85;98428.78;6145007;28;20785;-92
2022/09/21 12:15:31;;;;;;;0.70;0.70;;;;;;;16.12;52.93;98429.75;6144055;28;20230;-92
2022/09/21 12:18:46;;;;;;;2.37;0.60;;;;;;;16.48;51.94;98429.03;6176013;28;20701;-91
2022/09/21 12:21:57;;;;;;;1.33;0.70;;;;;;;17.04;50.57;98427.44;6184027;28;20291;-91
2022/09/21 12:25:12;;;;;;;0.73;0.73;;;;;;;16.74;49.20;98426.66;6198786;28;20727;-91
2022/09/21 12:28:26;;;;;;;0.80;0.80;;;;;;;16.54;50.82;98431.16;6168360;28;20262;-91
2022/09/21 12:31:42;;;;;;;1.33;0.70;;;;;;;16.85;49.54;98425.66;6184677;28;20693;-92
2022/09/21 12:34:50;;;;;;;0.97;0.80;;;;;;;17.36;49.40;98427.88;6199760;28;20249;-90
2022/09/21 12:38:15;;;;;;;0.90;0.90;;;;;;;18.03;48.92;98416.81;6167855;28;20307;-92
2022/09/21 12:41:54;;;;;;;1.20;0.90;;;;;;;19.15;100.00;60274.75;6166539;28;20229;-91
2022/09/21 12:45:14;;;;;;;0.80;0.80;;;;;;;-144.22;100.00;60274.75;6159125;28;20218;-91
2022/09/21 12:48:25;;;;;;;1.83;0.90;;;;;;;-144.22;100.00;60274.75;6158813;28;20422;-90
2022/09/21 12:51:35;;;;;;;2.03;0.93;;;;;;;-144.22;100.00;60274.75;6170295;28;20229;-92
2022/09/21 12:54:48;;;;;;;0.80;0.80;;;;;;;188.01;100.00;60274.75;6158998;28;20708;-91
2022/09/21 12:58:26;;;;;;;1.50;0.90;;;;;;;-144.22;100.00;60274.75;6175681;28;20364;-91
2022/09/21 13:02:10;;;;;;;2.20;0.77;;;;;;;-144.22;100.00;60274.75;6158913;28;20237;-90
2022/09/21 13:05:32;;;;;;;1.30;0.67;;;;;;;-144.22;100.00;60274.75;6175169;28;20233;-91
2022/09/21 13:08:43;;;;;;;2.50;0.80;;;;;;;22.20;100.00;60274.75;6158042;28;20292;-91
2022/09/21 13:12:05;;;;;;;0.80;0.80;;;;;;;-144.22;100.00;60274.75;6165465;28;20226;-91
2022/09/21 13:15:20;;;;;;;0.90;0.87;;;;;;;104.84;100.00;60274.75;6182885;28;20237;-91
2022/09/21 13:18:27;;;;;;;0.90;0.70;;;;;;;-144.22;100.00;60274.75;6182556;28;20241;-90
2022/09/21 13:21:35;;;;;;;0.83;0.67;;;;;;;-144.22;100.00;60274.75;6157418;28;20222;-90
2022/09/21 13:24:38;;;;;;;1.00;0.80;;;;;;;-144.22;100.00;60274.75;6173217;28;20222;-90
2022/09/21 13:28:03;;;;;;;2.93;0.70;;;;;;;-144.22;100.00;60274.75;6175231;28;20238;-91
2022/09/21 13:31:05;;;;;;;1.67;0.70;;;;;;;-144.22;100.00;60274.75;6174720;28;20260;-90
2022/09/21 13:34:35;;;;;;;0.80;0.67;;;;;;;-144.22;100.00;60274.75;6144515;28;20276;-92
2022/09/21 13:37:38;;;;;;;1.00;0.80;;;;;;;30.08;100.00;60274.75;6173577;28;20281;-91
2022/09/21 13:40:55;;;;;;;2.27;0.70;;;;;;;-144.22;100.00;60274.75;6174410;28;20234;-92
2022/09/21 13:43:57;;;;;;;2.87;1.00;;;;;;;-144.22;100.00;60274.75;6197208;28;20225;-91
2022/09/21 13:47:07;;;;;;;0.80;0.80;;;;;;;-144.22;100.00;60274.75;6181685;28;20249;-91
2022/09/21 13:50:24;;;;;;;1.17;0.90;;;;;;;31.48;100.00;60274.75;6181605;28;20229;-92
2022/09/21 13:53:34;;;;;;;0.80;0.80;;;;;;;-144.22;100.00;60274.75;6165758;28;20225;-92
2022/09/21 13:56:36;;;;;;;0.87;0.70;;;;;;;25.93;29.10;98370.63;6165387;28;20668;-92
2022/09/21 13:59:39;;;;;;;0.70;0.70;;;;;;;23.71;31.66;98364.13;6165203;28;20225;-91
2022/09/21 14:02:48;;;;;;;1.63;0.77;;;;;;;22.35;34.79;98369.78;6165136;28;20232;-90
2022/09/21 14:06:00;;;;;;;1.00;0.90;;;;;;;24.13;31.50;98360.66;6166533;28;20230;-90
2022/09/21 14:09:08;;;;;;;0.70;0.70;;;;;;;22.04;33.28;98363.63;6164406;28;20228;-90
2022/09/21 14:12:20;;;;;;;1.13;0.70;;;;;;;20.63;35.34;98370.69;6157700;28;20221;-91
2022/09/21 14:15:22;;;;;;;0.93;0.77;;;;;;;19.29;38.85;98362.06;6173343;28;20364;-89
2022/09/21 14:18:36;;;;;;;1.33;0.80;;;;;;;17.33;44.42;98370.31;6141309;28;20233;-90
2022/09/21 14:21:38;;;;;;;2.53;1.23;;;;;;;16.89;46.30;98374.56;6193619;28;20229;-91
2022/09/21 14:24:46;;;;;;;1.10;1.00;;;;;;;16.36;49.08;98365.41;6180849;28;20236;-90
2022/09/21 14:27:50;;;;;;;2.47;1.30;;;;;;;16.08;49.22;98362.63;6181419;28;20236;-91
2022/09/21 14:30:59;;;;;;;1.37;1.13;;;;;;;15.87;50.32;98357.44;6181107;28;20279;-90
2022/09/21 14:34:03;;;;;;;1.30;1.10;;;;;;;15.68;51.41;98353.91;6165192;28;20302;-91
2022/09/21 14:37:26;;;;;;;1.10;0.90;;;;;;;15.82;51.23;98362.34;6180392;28;20280;-91
2022/09/21 14:40:37;;;;;;;2.80;0.80;;;;;;;15.76;51.10;98362.91;6181142;28;20312;-90
2022/09/21 14:43:43;;;;;;;1.63;0.87;;;;;;;15.69;51.26;98359.09;6196931;28;20237;-91
2022/09/21 14:46:59;;;;;;;0.77;0.77;;;;;;;15.63;51.05;98357.00;6185966;28;20705;-92
2022/09/21 14:50:28;;;;;;;0.70;0.70;;;;;;;15.19;52.18;98355.59;6180453;28;20578;-91
2022/09/21 14:53:37;;;;;;;0.77;0.70;;;;;;;14.96;53.33;98354.16;6181170;28;20319;-89
2022/09/21 14:57:07;;;;;;;1.63;0.63;;;;;;;14.77;54.31;98347.75;6198236;28;20226;-91